createdAt,value
2022-09-12T00:01:20.661Z,97050.28
2022-09-12T00:03:49.321Z,97049.06
2022-09-12T00:06:24.542Z,97046.70
2022-09-12T00:08:56.148Z,97047.05
2022-09-12T00:11:25.605Z,97046.21
2022-09-12T00:13:59.316Z,97039.19
2022-09-12T00:16:30.467Z,97031.38
2022-09-12T00:18:58.677Z,97040.55
2022-09-12T00:21:27.322Z,97038.20
2022-09-12T00:23:55.455Z,97038.03
2022-09-12T00:26:23.263Z,97036.37
2022-09-12T00:28:51.548Z,97035.42
2022-09-12T00:31:24.443Z,97032.75
2022-09-12T00:33:55.237Z,97025.79
2022-09-12T00:36:25.253Z,97032.09
2022-09-12T00:38:54.132Z,97028.58
2022-09-12T00:41:29.786Z,97026.25
2022-09-12T00:44:27.335Z,97021.58
2022-09-12T00:47:05.205Z,97024.31
2022-09-12T00:49:53.090Z,97027.03
2022-09-12T00:52:35.312Z,97032.09
2022-09-12T00:55:11.408Z,97026.77
2022-09-12T00:58:01.371Z,97026.52
2022-09-12T01:00:29.656Z,97026.52
2022-09-12T01:03:02.422Z,97026.25
2022-09-12T01:05:33.961Z,97023.66
2022-09-12T01:08:04.598Z,97022.47
2022-09-12T01:10:35.133Z,97023.02
2022-09-12T01:13:06.765Z,97019.38
2022-09-12T01:15:36.301Z,97018.21
2022-09-12T01:18:35.326Z,97021.95
2022-09-12T01:21:46.745Z,97014.18
2022-09-12T01:24:50.309Z,97023.78
2022-09-12T01:28:04.214Z,97021.26
2022-09-12T01:31:10.441Z,97013.52
2022-09-12T01:34:10.990Z,97017.23
2022-09-12T01:37:13.716Z,97011.97
2022-09-12T01:40:15.113Z,97015.48
2022-09-12T01:43:05.601Z,97014.12
2022-09-12T01:45:46.194Z,97009.05
2022-09-12T01:48:28.008Z,97015.45
2022-09-12T01:51:38.010Z,97015.80
2022-09-12T01:54:20.417Z,97017.48
2022-09-12T01:56:53.175Z,97019.38
2022-09-12T01:59:29.401Z,97012.34
2022-09-12T02:02:11.897Z,97016.72
2022-09-12T02:04:59.683Z,97015.36
2022-09-12T02:07:44.125Z,97004.97
2022-09-12T02:10:21.951Z,97004.56
2022-09-12T02:13:10.248Z,96998.91
2022-09-12T02:15:43.036Z,96998.67
2022-09-12T02:18:14.558Z,96995.54
2022-09-12T02:20:48.581Z,96995.74
2022-09-12T02:23:25.137Z,97002.42
2022-09-12T02:25:57.515Z,97007.50
2022-09-12T02:28:33.136Z,97009.44
2022-09-12T02:31:21.120Z,97009.06
2022-09-12T02:34:06.218Z,97002.88
2022-09-12T02:36:43.051Z,97008.02
2022-09-12T02:39:10.884Z,97013.71
2022-09-12T02:41:38.605Z,97006.14
2022-09-12T02:44:06.359Z,97011.25
2022-09-12T02:46:39.145Z,97002.28
2022-09-12T02:49:09.342Z,97004.77
2022-09-12T02:51:37.250Z,97003.20
2022-09-12T02:54:07.244Z,97008.02
2022-09-12T02:56:34.941Z,97012.70
2022-09-12T02:59:09.604Z,97013.66
2022-09-12T03:02:11.346Z,97010.42
2022-09-12T03:05:02.061Z,97016.25
2022-09-12T03:07:53.618Z,97010.16
2022-09-12T03:10:48.113Z,97013.64
2022-09-12T03:13:39.420Z,97004.64
2022-09-12T03:16:37.004Z,97004.87
2022-09-12T03:19:48.124Z,97007.23
2022-09-12T03:22:33.280Z,97001.05
2022-09-12T03:25:17.516Z,97006.77
2022-09-12T03:28:03.509Z,97003.09
2022-09-12T03:30:31.202Z,97008.02
2022-09-12T03:32:58.567Z,97003.00
2022-09-12T03:35:26.172Z,97007.30
2022-09-12T03:37:53.962Z,97004.57
2022-09-12T03:40:21.488Z,97008.87
2022-09-12T03:42:48.949Z,97004.77
2022-09-12T03:45:16.598Z,97014.32
2022-09-12T03:47:44.107Z,97012.17
2022-09-12T03:50:11.887Z,97013.71
2022-09-12T03:52:39.561Z,97015.08
2022-09-12T03:55:07.733Z,97018.73
2022-09-12T03:57:35.290Z,97018.09
2022-09-12T04:00:07.104Z,97020.98
2022-09-12T04:02:37.127Z,97015.88
2022-09-12T04:05:05.561Z,97021.85
2022-09-12T04:07:33.192Z,97021.45
2022-09-12T04:10:00.949Z,97025.09
2022-09-12T04:12:29.795Z,97026.70
2022-09-12T04:14:57.194Z,97022.81
2022-09-12T04:17:24.964Z,97019.88
2022-09-12T04:19:52.489Z,97021.23
2022-09-12T04:22:20.648Z,97025.59
2022-09-12T04:24:48.436Z,97026.59
2022-09-12T04:27:16.044Z,97022.09
2022-09-12T04:29:43.621Z,97024.58
2022-09-12T04:32:11.199Z,97024.58
2022-09-12T04:34:38.691Z,97025.80
2022-09-12T04:37:06.019Z,97030.84
2022-09-12T04:39:33.784Z,97035.80
2022-09-12T04:42:02.153Z,97035.67
2022-09-12T04:44:29.781Z,97034.82
2022-09-12T04:46:57.453Z,97044.59
2022-09-12T04:49:25.081Z,97050.39
2022-09-12T04:51:54.683Z,97053.13
2022-09-12T04:54:22.543Z,97049.41
2022-09-12T04:56:52.189Z,97047.20
2022-09-12T04:59:21.696Z,97058.09
2022-09-12T05:01:49.798Z,97063.34
2022-09-12T05:04:17.767Z,97058.88
2022-09-12T05:06:46.924Z,97057.31
2022-09-12T05:09:16.039Z,97065.49
2022-09-12T05:12:04.129Z,97062.19
2022-09-12T05:14:14.319Z,97063.55
2022-09-12T05:16:46.060Z,97065.56
2022-09-12T05:19:12.260Z,97060.31
2022-09-12T05:21:39.992Z,97060.72
2022-09-12T05:24:09.042Z,97066.41
2022-09-12T05:26:36.885Z,97063.95
2022-09-12T05:29:06.575Z,97061.64
2022-09-12T05:31:35.023Z,97065.59
2022-09-12T05:34:04.531Z,97059.63
2022-09-12T05:36:32.865Z,97060.03
2022-09-12T05:39:01.007Z,97058.16
2022-09-12T05:41:33.094Z,97065.41
2022-09-12T05:44:05.038Z,97061.90
2022-09-12T05:46:39.628Z,97062.48
2022-09-12T05:49:12.698Z,97058.59
2022-09-12T05:51:45.369Z,97064.25
2022-09-12T05:54:17.584Z,97064.89
2022-09-12T05:56:46.189Z,97064.89
2022-09-12T05:59:20.095Z,97065.74
2022-09-12T06:01:48.106Z,97075.49
2022-09-12T06:04:16.701Z,97073.86
2022-09-12T06:06:45.637Z,97069.19
2022-09-12T06:09:15.792Z,97066.46
2022-09-12T06:11:44.754Z,97066.91
2022-09-12T06:14:16.095Z,97068.34
2022-09-12T06:16:44.005Z,97071.17
2022-09-12T06:19:21.160Z,97074.05
2022-09-12T06:21:51.128Z,97083.01
2022-09-12T06:24:20.549Z,97082.29
2022-09-12T06:26:52.149Z,97081.58
2022-09-12T06:29:20.043Z,97071.86
2022-09-12T06:31:47.754Z,97073.39
2022-09-12T06:34:16.371Z,97082.36
2022-09-12T06:36:47.635Z,97079.52
2022-09-12T06:39:22.200Z,97078.93
2022-09-12T06:41:51.544Z,97082.16
2022-09-12T06:44:22.137Z,97073.76
2022-09-12T06:46:49.804Z,97073.69
2022-09-12T06:49:17.596Z,97081.09
2022-09-12T06:51:45.364Z,97084.24
2022-09-12T06:54:15.110Z,97087.39
2022-09-12T06:56:43.563Z,97090.33
2022-09-12T06:59:11.050Z,97083.86
2022-09-12T07:01:39.582Z,97087.13
2022-09-12T07:04:07.166Z,97085.02
2022-09-12T07:06:40.993Z,97090.03
2022-09-12T07:09:13.233Z,97089.48
2022-09-12T07:11:42.550Z,97089.44
2022-09-12T07:14:13.473Z,97089.23
2022-09-12T07:16:41.788Z,97099.06
2022-09-12T07:19:09.688Z,97098.14
2022-09-12T07:21:39.199Z,97108.15
2022-09-12T07:24:09.280Z,97101.66
2022-09-12T07:26:39.327Z,97103.23
2022-09-12T07:31:36.319Z,97103.64
2022-09-12T07:34:06.431Z,97102.92
2022-09-12T07:36:34.471Z,97104.96
2022-09-12T07:39:02.165Z,97107.43
2022-09-12T07:41:33.506Z,97106.56
2022-09-12T07:44:03.510Z,97105.66
2022-09-12T07:46:32.843Z,97107.08
2022-09-12T07:49:01.821Z,97108.97
2022-09-12T07:51:30.779Z,97111.60
2022-09-12T07:53:59.251Z,97112.21
2022-09-12T07:56:31.941Z,97113.37
2022-09-12T07:58:58.696Z,97118.09
2022-09-12T08:01:27.306Z,97126.69
2022-09-12T08:03:58.439Z,97119.09
2022-09-12T08:06:30.586Z,97121.92
2022-09-12T08:08:59.553Z,97125.39
2022-09-12T08:11:29.441Z,97120.56
2022-09-12T08:13:58.358Z,97126.64
2022-09-12T08:16:30.474Z,97128.20
2022-09-12T08:19:01.402Z,97125.33
2022-09-12T08:21:33.663Z,97112.95
2022-09-12T08:24:05.335Z,97126.01
2022-09-12T08:26:34.505Z,97121.33
2022-09-12T08:29:03.671Z,97122.98
2022-09-12T08:31:33.659Z,97121.86
2022-09-12T08:34:01.439Z,97118.59
2022-09-12T08:36:29.609Z,97116.02
2022-09-12T08:39:05.416Z,97109.02
2022-09-12T08:41:47.623Z,97107.89
2022-09-12T08:44:26.827Z,97106.95
2022-09-12T08:47:31.203Z,97107.52
2022-09-12T08:50:11.104Z,97101.79
2022-09-12T08:52:53.127Z,97091.59
2022-09-12T08:55:34.716Z,97091.47
2022-09-12T08:58:20.137Z,97092.16
2022-09-12T09:01:16.080Z,97081.86
2022-09-12T09:04:10.386Z,97080.33
2022-09-12T09:06:49.379Z,97086.45
2022-09-12T09:09:40.085Z,97082.06
2022-09-12T09:12:38.888Z,97090.92
2022-09-12T09:15:24.389Z,97090.81
2022-09-12T09:18:06.458Z,97089.03
2022-09-12T09:20:48.087Z,97083.20
2022-09-12T09:23:33.246Z,97080.97
2022-09-12T09:26:13.762Z,97075.89
2022-09-12T09:28:52.468Z,97084.98
2022-09-12T09:31:26.683Z,97072.74
2022-09-12T09:33:54.945Z,97080.55
2022-09-12T09:36:52.148Z,97079.81
2022-09-12T09:39:55.163Z,97089.42
2022-09-12T09:42:55.538Z,97086.68
2022-09-12T09:45:27.364Z,97084.94
2022-09-12T09:48:19.003Z,97085.93
2022-09-12T09:50:49.493Z,97091.41
2022-09-12T09:53:47.267Z,97090.61
2022-09-12T09:56:32.662Z,97089.06
2022-09-12T09:59:19.627Z,97090.42
2022-09-12T10:02:01.826Z,97087.32
2022-09-12T10:04:39.252Z,97096.90
2022-09-12T10:07:05.934Z,97088.50
2022-09-12T10:09:36.041Z,97089.93
2022-09-12T10:12:28.057Z,97087.15
2022-09-12T10:15:06.521Z,97101.70
2022-09-12T10:17:43.399Z,97098.43
2022-09-12T10:20:40.667Z,97095.22
2022-09-12T10:23:35.763Z,97095.18
2022-09-12T10:26:11.620Z,97107.52
2022-09-12T10:28:50.487Z,97108.32
2022-09-12T10:31:35.619Z,97122.61
2022-09-12T10:34:05.070Z,97112.78
2022-09-12T10:36:38.892Z,97106.73
2022-09-12T10:39:07.102Z,97108.13
2022-09-12T10:41:40.850Z,97103.72
2022-09-12T10:44:15.932Z,97105.14
2022-09-12T10:46:44.066Z,97110.64
2022-09-12T10:49:28.330Z,97110.46
2022-09-12T10:51:59.145Z,97118.06
2022-09-12T10:54:28.059Z,97120.42
2022-09-12T10:57:23.841Z,97113.59
2022-09-12T11:00:17.446Z,97111.63
2022-09-12T11:03:01.156Z,97128.52
2022-09-12T11:05:55.818Z,97128.15
2022-09-12T11:08:59.654Z,97123.02
2022-09-12T11:12:03.331Z,97127.13
2022-09-12T11:14:54.033Z,97119.31
2022-09-12T11:17:51.494Z,97128.32
2022-09-12T11:20:33.523Z,97132.08
2022-09-12T11:26:15.918Z,97122.25
2022-09-12T11:29:04.522Z,97138.35
2022-09-12T11:32:17.204Z,97120.51
2022-09-12T11:34:59.312Z,97121.13
2022-09-12T11:37:40.609Z,97123.47
2022-09-12T11:40:15.327Z,97120.72
2022-09-12T11:42:45.983Z,97115.82
2022-09-12T11:45:21.716Z,97110.53
2022-09-12T11:47:53.550Z,97113.09
2022-09-12T11:50:30.517Z,97119.56
2022-09-12T11:53:06.618Z,97118.00
2022-09-12T11:55:45.883Z,97116.43
2022-09-12T11:58:14.809Z,97119.77
2022-09-12T12:00:51.274Z,97115.84
2022-09-12T12:03:30.019Z,97122.30
2022-09-12T12:06:08.640Z,97115.62
2022-09-12T12:08:43.187Z,97122.30
2022-09-12T12:11:13.867Z,97122.47
2022-09-12T12:13:51.870Z,97123.06
2022-09-12T12:16:29.710Z,97126.01
2022-09-12T12:19:06.494Z,97117.19
2022-09-12T12:21:46.409Z,97122.52
2022-09-12T12:24:24.440Z,97127.22
2022-09-12T12:27:03.011Z,97120.36
2022-09-12T12:29:43.878Z,97124.28
2022-09-12T12:32:20.482Z,97130.98
2022-09-12T12:34:48.397Z,97130.59
2022-09-12T12:37:31.784Z,97125.08
2022-09-12T12:40:13.494Z,97117.25
2022-09-12T12:42:50.108Z,97121.94
2022-09-12T12:45:31.716Z,97121.56
2022-09-12T12:48:13.356Z,97115.47
2022-09-12T12:50:41.418Z,97126.65
2022-09-12T12:53:27.884Z,97124.28
2022-09-12T12:55:57.200Z,97125.66
2022-09-12T12:58:41.375Z,97130.56
2022-09-12T13:01:20.894Z,97127.63
2022-09-12T13:04:06.159Z,97132.92
2022-09-12T13:06:44.070Z,97129.79
2022-09-12T13:09:23.545Z,97131.97
2022-09-12T13:12:03.710Z,97129.77
2022-09-12T13:14:54.047Z,97123.09
2022-09-12T13:17:41.763Z,97128.59
2022-09-12T13:20:28.222Z,97128.39
2022-09-12T13:22:53.598Z,97129.35
2022-09-12T13:25:29.434Z,97131.31
2022-09-12T13:28:06.949Z,97134.45
2022-09-12T13:30:39.632Z,97138.78
2022-09-12T13:33:28.742Z,97143.48
2022-09-12T13:36:29.076Z,97143.84
2022-09-12T13:39:10.805Z,97145.83
2022-09-12T13:42:29.494Z,97134.85
2022-09-12T13:45:09.560Z,97137.01
2022-09-12T13:47:46.719Z,97132.50
2022-09-12T13:50:21.806Z,97136.20
2022-09-12T13:53:00.198Z,97136.98
2022-09-12T13:55:31.651Z,97138.94
2022-09-12T13:58:04.148Z,97127.97
2022-09-12T14:00:34.401Z,97131.92
2022-09-12T14:03:20.633Z,97127.00
2022-09-12T14:05:55.241Z,97127.22
2022-09-12T14:08:23.879Z,97128.20
2022-09-12T14:10:51.372Z,97131.51
2022-09-12T14:13:27.523Z,97131.28
2022-09-12T14:15:56.718Z,97131.26
2022-09-12T14:18:33.779Z,97138.31
2022-09-12T14:21:12.222Z,97130.84
2022-09-12T14:23:46.939Z,97137.48
2022-09-12T14:26:17.262Z,97142.97
2022-09-12T14:28:48.899Z,97143.98
2022-09-12T14:31:23.877Z,97142.64
2022-09-12T14:33:55.945Z,97147.70
2022-09-12T14:36:35.030Z,97142.11
2022-09-12T14:39:06.573Z,97142.36
2022-09-12T14:41:38.252Z,97144.63
2022-09-12T14:44:10.674Z,97135.22
2022-09-12T14:46:41.755Z,97148.38
2022-09-12T14:49:32.197Z,97143.92
2022-09-12T14:52:10.544Z,97149.83
2022-09-12T14:54:41.207Z,97144.58
2022-09-12T14:57:33.573Z,97141.67
2022-09-12T15:00:15.482Z,97150.75
2022-09-12T15:02:44.370Z,97139.57
2022-09-12T15:05:17.539Z,97135.70
2022-09-12T15:07:58.065Z,97141.25
2022-09-12T15:10:31.113Z,97143.43
2022-09-12T15:13:15.754Z,97138.13
2022-09-12T15:15:53.620Z,97135.77
2022-09-12T15:18:26.262Z,97141.62
2022-09-12T15:21:03.067Z,97140.42
2022-09-12T15:23:48.324Z,97143.33
2022-09-12T15:26:22.794Z,97133.91
2022-09-12T15:28:51.474Z,97139.70
2022-09-12T15:31:27.180Z,97142.36
2022-09-12T15:33:56.555Z,97148.08
2022-09-12T15:36:25.874Z,97150.49
2022-09-12T15:38:53.851Z,97153.27
2022-09-12T15:41:26.595Z,97149.59
2022-09-12T15:43:55.646Z,97153.67
2022-09-12T15:46:23.428Z,97155.85
2022-09-12T15:48:50.873Z,97162.38
2022-09-12T15:51:21.455Z,97167.80
2022-09-12T15:53:50.458Z,97169.27
2022-09-12T15:56:20.513Z,97164.78
2022-09-12T15:58:59.097Z,97164.69
2022-09-12T16:01:19.132Z,97169.95
2022-09-12T16:03:47.326Z,97173.37
2022-09-12T16:06:15.348Z,97169.76
2022-09-12T16:08:43.164Z,97172.23
2022-09-12T16:11:22.903Z,97178.81
2022-09-12T16:13:53.201Z,97176.98
2022-09-12T16:16:21.183Z,97180.83
2022-09-12T16:18:48.921Z,97182.92
2022-09-12T16:21:16.823Z,97184.70
2022-09-12T16:23:45.641Z,97189.17
2022-09-12T16:26:13.176Z,97183.30
2022-09-12T16:28:40.993Z,97184.09
2022-09-12T16:31:12.513Z,97179.03
2022-09-12T16:33:40.659Z,97182.59
2022-09-12T16:36:12.028Z,97188.75
2022-09-12T16:38:44.996Z,97183.34
2022-09-12T16:41:13.650Z,97182.91
2022-09-12T16:43:42.528Z,97183.34
2022-09-12T16:46:17.519Z,97189.41
2022-09-12T16:48:52.472Z,97192.78
2022-09-12T16:51:23.985Z,97192.05
2022-09-12T16:53:52.083Z,97191.09
2022-09-12T16:56:19.711Z,97197.39
2022-09-12T16:58:47.632Z,97196.03
2022-09-12T17:01:21.295Z,97197.92
2022-09-12T17:03:54.084Z,97197.84
2022-09-12T17:06:21.446Z,97200.67
2022-09-12T17:08:52.153Z,97202.42
2022-09-12T17:11:23.637Z,97200.03
2022-09-12T17:14:10.701Z,97203.94
2022-09-12T17:16:25.038Z,97200.36
2022-09-12T17:18:53.043Z,97212.59
2022-09-12T17:21:21.157Z,97210.83
2022-09-12T17:23:49.329Z,97212.77
2022-09-12T17:26:17.396Z,97211.61
2022-09-12T17:28:45.368Z,97211.61
2022-09-12T17:31:14.554Z,97215.91
2022-09-12T17:33:42.302Z,97213.38
2022-09-12T17:36:15.527Z,97216.55
2022-09-12T17:38:45.419Z,97213.82
2022-09-12T17:41:17.203Z,97219.69
2022-09-12T17:43:50.407Z,97218.76
2022-09-12T17:46:20.343Z,97212.71
2022-09-12T17:48:55.907Z,97214.08
2022-09-12T17:51:25.653Z,97215.88
2022-09-12T17:54:00.581Z,97223.50
2022-09-12T17:56:31.217Z,97218.76
2022-09-12T17:59:00.033Z,97214.98
2022-09-12T18:01:47.919Z,97219.80
2022-09-12T18:04:16.839Z,97213.88
2022-09-12T18:06:46.016Z,97221.89
2022-09-12T18:09:17.151Z,97214.48
2022-09-12T18:11:45.735Z,97223.50
2022-09-12T18:14:14.401Z,97220.06
2022-09-12T18:16:43.368Z,97215.84
2022-09-12T18:19:11.561Z,97213.42
2022-09-12T18:21:39.255Z,97210.90
2022-09-12T18:24:07.266Z,97214.72
2022-09-12T18:26:34.676Z,97213.29
2022-09-12T18:29:02.187Z,97213.02
2022-09-12T18:31:31.205Z,97216.46
2022-09-12T18:34:02.024Z,97218.34
2022-09-12T18:36:30.513Z,97216.32
2022-09-12T18:38:59.196Z,97209.09
2022-09-12T18:41:28.433Z,97210.59
2022-09-12T18:44:01.625Z,97207.28
2022-09-12T18:46:31.442Z,97209.59
2022-09-12T18:49:00.882Z,97218.05
2022-09-12T18:51:33.077Z,97207.95
2022-09-12T18:54:08.295Z,97214.28
2022-09-12T18:56:37.799Z,97215.36
2022-09-12T18:59:07.590Z,97218.14
2022-09-12T19:01:37.723Z,97218.00
2022-09-12T19:04:07.039Z,97217.38
2022-09-12T19:06:40.914Z,97212.63
2022-09-12T19:09:09.883Z,97216.51
2022-09-12T19:11:41.865Z,97207.75
2022-09-12T19:14:09.250Z,97216.51
2022-09-12T19:16:36.868Z,97218.58
2022-09-12T19:19:04.394Z,97217.59
2022-09-12T19:21:33.828Z,97215.64
2022-09-12T19:24:08.916Z,97219.37
2022-09-12T19:26:38.362Z,97214.91
2022-09-12T19:29:06.646Z,97212.34
2022-09-12T19:31:34.456Z,97217.80
2022-09-12T19:34:04.859Z,97212.13
2022-09-12T19:36:44.829Z,97206.61
2022-09-12T19:39:05.406Z,97212.06
2022-09-12T19:41:33.498Z,97216.14
2022-09-12T19:44:01.464Z,97212.97
2022-09-12T19:46:28.623Z,97210.95
2022-09-12T19:48:56.078Z,97208.97
2022-09-12T19:51:23.586Z,97209.88
2022-09-12T19:53:51.519Z,97208.10
2022-09-12T19:56:19.087Z,97207.58
2022-09-12T19:58:51.017Z,97211.95
2022-09-12T20:01:24.382Z,97210.50
2022-09-12T20:03:53.215Z,97208.40
2022-09-12T20:06:20.746Z,97208.02
2022-09-12T20:08:48.586Z,97210.91
2022-09-12T20:11:19.442Z,97211.89
2022-09-12T20:13:47.616Z,97214.23
2022-09-12T20:16:22.182Z,97214.09
2022-09-12T20:18:56.183Z,97216.27
2022-09-12T20:21:28.029Z,97218.69
2022-09-12T20:23:55.353Z,97218.59
2022-09-12T20:26:24.540Z,97223.62
2022-09-12T20:28:52.174Z,97223.95
2022-09-12T20:31:19.561Z,97234.84
2022-09-12T20:33:51.658Z,97222.17
2022-09-12T20:36:19.630Z,97228.03
2022-09-12T20:38:51.787Z,97236.44
2022-09-12T20:41:20.751Z,97225.89
2022-09-12T20:43:52.830Z,97223.62
2022-09-12T20:46:27.289Z,97219.95
2022-09-12T20:48:55.403Z,97219.63
2022-09-12T20:51:25.314Z,97218.27
2022-09-12T20:53:54.997Z,97224.13
2022-09-12T20:56:24.023Z,97223.44
2022-09-12T20:58:51.543Z,97225.22
2022-09-12T21:01:19.222Z,97219.08
2022-09-12T21:03:47.144Z,97220.02
2022-09-12T21:06:19.043Z,97219.08
2022-09-12T21:08:48.661Z,97220.80
2022-09-12T21:11:18.243Z,97220.11
2022-09-12T21:13:46.703Z,97213.06
2022-09-12T21:16:18.397Z,97221.59
2022-09-12T21:18:46.538Z,97218.87
2022-09-12T21:21:15.906Z,97216.84
2022-09-12T21:23:43.766Z,97215.09
2022-09-12T21:26:11.573Z,97220.80
2022-09-12T21:28:39.419Z,97230.03
2022-09-12T21:31:08.013Z,97225.64
2022-09-12T21:33:35.721Z,97224.30
2022-09-12T21:36:05.757Z,97224.48
2022-09-12T21:38:34.085Z,97229.97
2022-09-12T21:41:09.446Z,97229.63
2022-09-12T21:43:37.962Z,97227.39
2022-09-12T21:46:06.662Z,97226.50
2022-09-12T21:48:35.166Z,97230.16
2022-09-12T21:51:03.824Z,97235.38
2022-09-12T21:53:31.754Z,97225.77
2022-09-12T21:56:08.119Z,97233.92
2022-09-12T21:58:36.937Z,97236.42
2022-09-12T22:01:07.742Z,97233.36
2022-09-12T22:03:35.256Z,97228.84
2022-09-12T22:06:06.450Z,97234.10
2022-09-12T22:08:35.444Z,97229.47
2022-09-12T22:11:08.489Z,97230.97
2022-09-12T22:13:42.957Z,97227.58
2022-09-12T22:16:11.149Z,97232.37
2022-09-12T22:18:39.063Z,97229.19
2022-09-12T22:21:12.889Z,97237.13
2022-09-12T22:23:59.102Z,97235.41
2022-09-12T22:26:26.958Z,97238.12
2022-09-12T22:28:55.069Z,97239.16
2022-09-12T22:31:22.659Z,97235.52
2022-09-12T22:33:51.030Z,97234.84
2022-09-12T22:36:18.630Z,97232.12
2022-09-12T22:38:46.159Z,97240.48
2022-09-12T22:41:14.038Z,97239.81
2022-09-12T22:43:41.659Z,97237.02
2022-09-12T22:46:11.899Z,97240.74
2022-09-12T22:48:40.121Z,97236.59
2022-09-12T22:51:08.138Z,97234.87
2022-09-12T22:53:36.515Z,97236.48
2022-09-12T22:56:05.966Z,97229.26
2022-09-12T22:58:36.584Z,97239.02
2022-09-12T23:01:06.531Z,97240.83
2022-09-12T23:03:35.875Z,97246.05
2022-09-12T23:06:05.005Z,97241.31
2022-09-12T23:08:35.901Z,97248.09
2022-09-12T23:11:10.432Z,97241.11
2022-09-12T23:13:44.431Z,97244.16
2022-09-12T23:16:24.627Z,97246.52
2022-09-12T23:18:52.650Z,97241.56
2022-09-12T23:21:21.999Z,97239.50
2022-09-12T23:23:50.697Z,97244.59
2022-09-12T23:26:24.319Z,97236.08
2022-09-12T23:28:55.701Z,97236.52
2022-09-12T23:31:26.147Z,97236.19
2022-09-12T23:33:55.109Z,97229.50
2022-09-12T23:36:24.502Z,97234.48
2022-09-12T23:38:53.519Z,97239.00
2022-09-12T23:41:21.876Z,97242.59
2022-09-12T23:43:50.201Z,97236.83
2022-09-12T23:46:18.332Z,97233.45
2022-09-12T23:48:46.169Z,97239.31
2022-09-12T23:51:14.612Z,97241.81
2022-09-12T23:53:42.401Z,97231.97
2022-09-12T23:56:10.540Z,97230.17
2022-09-12T23:58:38.229Z,97227.93
